Accueil
METAR-TAF:

METAR-TAF

Aéroports :

Chugiak, Alaska, États-Unis

latitude: 61-25N, longitude: 149-31W, altitude: 29 m

Observation

Le bulletin a été fait il y a 1 heure et 7 minutes, à 08:56 UTC
Vent calme
Température 12°C
Humidité 94%
Pression 1027 hPa
Visibilité: 16.1 km
Ciel couvert à une hauteur de 8000 ft

METAR: PABV 190856Z AUTO 00000KT 10SM OVC080 12/11 A3034 RMK AO2 SLP283 T01170106 55000 $

Heure: 02:03 (10:03 UTC)


TAF: absent

Observations et prévisions météorologiques de plus de 4000 aéroports (messages METAR et TAF).

Les stations disponibles sont représentées par des disques jaunes et rouges sur la carte.

Passer la souris dessus pour voir le nom de la station.

Cliquer dessus pour voir les observations et prévisions météorologiques.

Pour changer de carte: cliquez sur les boutons verts avec une croix noire pour zoomer, sur le bouton vert avec un tiret pour effectuer un zoom arrière, ou sur les flèches vertes pour les cartes adjacentes.


METAR-TAF: